Terminal Aerodrome Forecast
Issued by NWS Charleston, WV

Current Version | Previous Version | Text Only | Print | Product List | Glossary Off
Versions: 1 2 3 4 5 6 7 8 9 10 11 12 13 14 15 16 17 18 19 20 21 22 23 24 25 26 27

000
FTUS41 KRLX 230903 AAA
TAFEKN
TAF AMD
KEKN 230903Z 2309/2406 00000KT P6SM BKN035
      TEMPO 2309/2312 3SM BR
     FM231500 11006KT P6SM BKN040
     FM240200 11004KT P6SM -SHRA OVC030=

USA.gov is the U.S. government's official web portal to all federal, state and local government web resources and services.